首页
METAR-TAF:

METAR-TAF

机场 :

真纳国际机场

卡拉奇, 巴基斯坦

纬度: 24-54N, 经度: 067-08E, 海拔: 21米

当前天气观测

该预报发布于45分钟前的23:26 UTC
静风
温度 21°C
湿度 64%
气压 1010 hPa
能見度: 4000

METAR: OPKC 172326Z 00000KT 4000 FU NSC 21/14 Q1010 NOSIG

时间: 05:11 (00:11 UTC)

预报

该预报发布于2小时和11分钟前的22:00 UTC
预报有效从18日的 00点(UTC)到 19日的 06点(UTC)
风速10节,风向西
能見度: 6000
少量云层高于3000英尺
散云层高于10000英尺
短暂存在
从 18日的 01点(UTC)到 18日的 05点(UTC)
风速3节,风向多变
能見度: 2000
少量云层高于3000英尺
散云层高于10000英尺
成为
从 18日的 18点(UTC)到 18日的 20点(UTC)
风速5节,风向西
能見度: 5000
少量云层高于10000英尺
短暂存在
从 19日的 01点(UTC)到 19日的 05点(UTC)
风速3节,风向多变
能見度: 2000
少量云层高于3000英尺
散云层高于10000英尺

TAF: OPKC 172200Z 1800/1906 27010KT 6000 FEW030 SCT100 TEMPO 1801/1805 VRB03KT 2000 FU FEW030 SCT100 BECMG 1818/1820 27005KT 5000 FU FEW100 TEMPO 1901/1905 VRB03KT 2000 FU FEW030 SCT100

超过4000个机场的气象观测和天气预报(METAR&TAF报告)。

可查询的气象台以黄色和红色小点在地图上表示。

将鼠标移到小点上方,可查看气象台名称。

然后点击查看天气观测和预报。

如需切换地图:点击带黑十字的绿色按钮放大地图;点击带横线的绿色按钮缩小地图;或者点击绿色箭头查看邻近地区的地图。


METAR-TAF: